Time;durP1;ratioP1;P1;durP2;ratioP2;P2;SDS_P1;SDS_P2;PMS_P1;PMS_P2;Temp;Humidity;BMP_temperature;BMP_pressure;BME280_temperature;BME280_humidity;BME280_pressure;Samples;Min_cycle;Max_cycle;Signal;HPM_P1;HPM_P2
2022/11/30 00:01:22;;;;;;;22.27;10.25;;;;;;;;;;5049226;28;20543;-63
2022/11/30 00:03:49;;;;;;;23.95;10.23;;;;;;;;;;5045476;28;20060;-63
2022/11/30 00:06:21;;;;;;;19.75;10.98;;;;;;;;;;5048247;28;20568;-64
2022/11/30 00:08:49;;;;;;;28.17;12.38;;;;;;;;;;5046095;28;20052;-63
2022/11/30 00:11:19;;;;;;;33.05;14.48;;;;;;;;;;5047406;28;20060;-63
2022/11/30 00:13:47;;;;;;;34.20;15.95;;;;;;;;;;5046376;28;20047;-63
2022/11/30 00:16:14;;;;;;;26.15;13.65;;;;;;;;;;5046857;28;20045;-63
2022/11/30 00:18:41;;;;;;;16.90;10.20;;;;;;;;;;5039150;28;20051;-64
2022/11/30 00:21:11;;;;;;;17.02;9.38;;;;;;;;;;5048708;28;20048;-64
2022/11/30 00:23:46;;;;;;;15.48;9.02;;;;;;;;;;5056413;28;20113;-63
2022/11/30 00:26:14;;;;;;;16.80;10.13;;;;;;;;;;5031709;28;20159;-63
2022/11/30 00:28:42;;;;;;;16.90;9.85;;;;;;;;;;5040508;28;20045;-64
2022/11/30 00:31:11;;;;;;;24.10;11.43;;;;;;;;;;5046467;28;20045;-63
2022/11/30 00:33:38;;;;;;;21.08;12.45;;;;;;;;;;5051610;28;20056;-64
2022/11/30 00:36:06;;;;;;;29.60;13.50;;;;;;;;;;5049624;28;20055;-64
2022/11/30 00:38:34;;;;;;;29.42;13.95;;;;;;;;;;5050052;28;20064;-63
2022/11/30 00:41:03;;;;;;;21.67;12.90;;;;;;;;;;5027418;28;20164;-63
2022/11/30 00:43:31;;;;;;;34.40;15.80;;;;;;;;;;5049408;28;20060;-64
2022/11/30 00:45:58;;;;;;;28.95;14.95;;;;;;;;;;5050525;28;20041;-64
2022/11/30 00:48:26;;;;;;;44.88;15.18;;;;;;;;;;5049155;28;20076;-64
2022/11/30 00:50:53;;;;;;;42.92;16.65;;;;;;;;;;5049740;28;20064;-64
2022/11/30 00:53:21;;;;;;;27.52;13.88;;;;;;;;;;5046444;28;20467;-64
2022/11/30 00:55:48;;;;;;;26.52;14.77;;;;;;;;;;5047625;28;20041;-63
2022/11/30 00:58:17;;;;;;;22.08;12.80;;;;;;;;;;5052410;28;20049;-63
2022/11/30 01:00:45;;;;;;;20.33;12.63;;;;;;;;;;5030025;28;20063;-63
2022/11/30 01:03:12;;;;;;;24.48;14.48;;;;;;;;;;5044782;28;20052;-64
2022/11/30 01:05:40;;;;;;;22.25;13.65;;;;;;;;;;5045196;28;20080;-63
2022/11/30 01:08:08;;;;;;;28.52;15.85;;;;;;;;;;5045316;28;20049;-63
2022/11/30 01:10:35;;;;;;;31.05;16.38;;;;;;;;;;5046616;28;20072;-63
2022/11/30 01:13:02;;;;;;;32.75;17.15;;;;;;;;;;5049802;28;20053;-63
2022/11/30 01:15:31;;;;;;;36.80;17.95;;;;;;;;;;5047757;28;20059;-64
2022/11/30 01:17:59;;;;;;;32.38;18.48;;;;;;;;;;5044828;28;20052;-63
2022/11/30 01:20:27;;;;;;;43.20;18.95;;;;;;;;;;5048743;28;20076;-63
2022/11/30 01:22:55;;;;;;;47.60;18.65;;;;;;;;;;5054110;28;20041;-64
2022/11/30 01:25:22;;;;;;;48.53;19.17;;;;;;;;;;5048629;28;20057;-63
2022/11/30 01:27:49;;;;;;;108.22;22.42;;;;;;;;;;5045842;28;20411;-63
2022/11/30 01:30:17;;;;;;;30.63;15.77;;;;;;;;;;5044540;28;20045;-64
2022/11/30 01:32:45;;;;;;;21.98;12.93;;;;;;;;;;5040042;28;20132;-63
2022/11/30 01:35:13;;;;;;;26.67;12.75;;;;;;;;;;5050593;28;20092;-63
2022/11/30 01:37:40;;;;;;;25.45;12.30;;;;;;;;;;5043434;28;21206;-63
2022/11/30 01:40:08;;;;;;;36.08;12.60;;;;;;;;;;5046393;28;20040;-63
2022/11/30 01:42:36;;;;;;;24.10;10.95;;;;;;;;;;5043865;28;20064;-63
2022/11/30 01:45:05;;;;;;;17.65;10.50;;;;;;;;;;5057396;28;20059;-64
2022/11/30 01:47:35;;;;;;;21.05;10.70;;;;;;;;;;5050429;28;20048;-64
2022/11/30 01:50:06;;;;;;;19.33;10.90;;;;;;;;;;5047118;28;20131;-63
2022/11/30 01:52:36;;;;;;;26.55;11.73;;;;;;;;;;5044629;28;20057;-63
2022/11/30 01:55:07;;;;;;;28.40;11.93;;;;;;;;;;5049892;28;20159;-64
2022/11/30 01:57:36;;;;;;;15.80;10.02;;;;;;;;;;5048282;28;20045;-64
2022/11/30 02:00:06;;;;;;;21.60;11.52;;;;;;;;;;5045204;28;20132;-63
2022/11/30 02:02:38;;;;;;;15.52;9.90;;;;;;;;;;5054528;28;20049;-63
2022/11/30 02:05:07;;;;;;;16.17;10.02;;;;;;;;;;5047293;28;20053;-64
2022/11/30 02:07:34;;;;;;;22.73;12.95;;;;;;;;;;5044932;28;20084;-64
2022/11/30 02:10:01;;;;;;;26.73;13.90;;;;;;;;;;5047553;28;20577;-63
2022/11/30 02:12:34;;;;;;;24.13;12.52;;;;;;;;;;5028752;28;20063;-64
2022/11/30 02:15:06;;;;;;;20.88;12.52;;;;;;;;;;5048042;28;20049;-63
2022/11/30 02:17:36;;;;;;;28.63;13.50;;;;;;;;;;5047585;28;20041;-64
2022/11/30 02:20:18;;;;;;;20.63;12.57;;;;;;;;;;5048761;28;20139;-63
2022/11/30 02:22:52;;;;;;;24.42;14.90;;;;;;;;;;5032854;28;20053;-63
2022/11/30 02:25:23;;;;;;;33.38;15.45;;;;;;;;;;5050890;28;20050;-63
2022/11/30 02:27:57;;;;;;;32.90;15.57;;;;;;;;;;5047908;28;20411;-64
2022/11/30 02:30:26;;;;;;;28.83;15.13;;;;;;;;;;5049033;28;20442;-63
2022/11/30 02:32:56;;;;;;;26.60;15.18;;;;;;;;;;5046942;28;20048;-64
2022/11/30 02:35:26;;;;;;;32.38;15.05;;;;;;;;;;5046768;28;20063;-64
2022/11/30 02:37:55;;;;;;;32.95;15.40;;;;;;;;;;5031744;28;20115;-64
2022/11/30 02:40:22;;;;;;;36.03;14.98;;;;;;;;;;5049327;28;20045;-64
2022/11/30 02:42:51;;;;;;;25.58;12.68;;;;;;;;;;5049208;28;20060;-63
2022/11/30 02:45:19;;;;;;;28.73;13.95;;;;;;;;;;5054471;28;20119;-63
2022/11/30 02:47:52;;;;;;;24.83;13.02;;;;;;;;;;5052923;28;20045;-63
2022/11/30 02:50:23;;;;;;;22.33;13.57;;;;;;;;;;5048041;28;20067;-64
2022/11/30 02:52:51;;;;;;;26.05;12.38;;;;;;;;;;5049763;28;20059;-64
2022/11/30 02:55:19;;;;;;;23.20;13.18;;;;;;;;;;5046666;28;20144;-64
2022/11/30 02:57:46;;;;;;;29.85;14.20;;;;;;;;;;5058894;28;20051;-64
2022/11/30 03:00:14;;;;;;;29.17;14.05;;;;;;;;;;5058225;28;20053;-63
2022/11/30 03:02:42;;;;;;;24.92;13.73;;;;;;;;;;5059206;28;20076;-63
2022/11/30 03:05:11;;;;;;;25.60;13.57;;;;;;;;;;5056794;28;20057;-63
2022/11/30 03:07:38;;;;;;;26.17;13.43;;;;;;;;;;5050477;28;20068;-64
2022/11/30 03:10:06;;;;;;;26.38;14.27;;;;;;;;;;5029230;28;20053;-63
2022/11/30 03:12:33;;;;;;;25.42;13.93;;;;;;;;;;5058757;28;20095;-64
2022/11/30 03:15:00;;;;;;;29.55;13.85;;;;;;;;;;5053625;28;20045;-64
2022/11/30 03:17:28;;;;;;;23.05;13.45;;;;;;;;;;5056618;28;20055;-62
2022/11/30 03:19:55;;;;;;;30.92;14.68;;;;;;;;;;5043484;28;20055;-64
2022/11/30 03:22:23;;;;;;;25.40;14.05;;;;;;;;;;5055071;28;20087;-64
2022/11/30 03:24:51;;;;;;;27.67;13.60;;;;;;;;;;5051226;28;20059;-63
2022/11/30 03:27:18;;;;;;;23.60;13.98;;;;;;;;;;5051313;28;20060;-63
2022/11/30 03:29:45;;;;;;;23.13;13.27;;;;;;;;;;5035473;28;20507;-63
2022/11/30 03:32:12;;;;;;;25.95;14.02;;;;;;;;;;5058095;28;20532;-64
2022/11/30 03:34:40;;;;;;;30.77;14.63;;;;;;;;;;5052978;28;20052;-63
2022/11/30 03:37:07;;;;;;;35.88;16.25;;;;;;;;;;5046245;28;20566;-63
2022/11/30 03:39:35;;;;;;;32.00;16.40;;;;;;;;;;5031770;28;20107;-64
2022/11/30 03:42:03;;;;;;;34.08;16.17;;;;;;;;;;5052154;28;20492;-63
2022/11/30 03:44:30;;;;;;;31.30;15.68;;;;;;;;;;5050481;28;20045;-64
2022/11/30 03:46:57;;;;;;;37.70;16.70;;;;;;;;;;5030374;28;20054;-63
2022/11/30 03:49:24;;;;;;;29.48;16.17;;;;;;;;;;5049086;28;20052;-63
2022/11/30 03:51:51;;;;;;;30.70;15.70;;;;;;;;;;5048418;28;20053;-64
2022/11/30 03:54:20;;;;;;;39.55;16.13;;;;;;;;;;5047884;28;20052;-63
2022/11/30 03:56:49;;;;;;;31.20;16.67;;;;;;;;;;5043944;28;20052;-64
2022/11/30 03:59:16;;;;;;;37.05;16.88;;;;;;;;;;5040522;28;20045;-63
2022/11/30 04:01:43;;;;;;;33.63;16.08;;;;;;;;;;5041331;28;20049;-64
2022/11/30 04:04:11;;;;;;;38.38;17.30;;;;;;;;;;5042918;28;20048;-64
2022/11/30 04:06:39;;;;;;;35.45;17.50;;;;;;;;;;5044702;28;20052;-63
2022/11/30 04:09:06;;;;;;;31.52;16.45;;;;;;;;;;5047021;28;20048;-63
2022/11/30 04:11:34;;;;;;;38.60;17.58;;;;;;;;;;5050345;28;20057;-64
2022/11/30 04:14:03;;;;;;;37.97;18.40;;;;;;;;;;5026017;28;20567;-64
2022/11/30 04:16:30;;;;;;;43.10;18.95;;;;;;;;;;5039034;28;20390;-63
2022/11/30 04:18:57;;;;;;;38.53;18.13;;;;;;;;;;5023499;28;20045;-63
2022/11/30 04:21:24;;;;;;;35.03;17.13;;;;;;;;;;5042379;28;20056;-63
2022/11/30 04:23:52;;;;;;;42.03;17.67;;;;;;;;;;5045462;28;20479;-64
2022/11/30 04:26:19;;;;;;;38.40;17.77;;;;;;;;;;5046304;28;20052;-64
2022/11/30 04:28:46;;;;;;;34.55;17.13;;;;;;;;;;5044579;28;20424;-63
2022/11/30 04:31:15;;;;;;;35.05;16.60;;;;;;;;;;5045590;28;20057;-64
2022/11/30 04:33:42;;;;;;;38.78;18.15;;;;;;;;;;5032729;28;20152;-63
2022/11/30 04:36:16;;;;;;;42.78;18.25;;;;;;;;;;5045230;28;20524;-63
2022/11/30 04:38:43;;;;;;;32.55;16.63;;;;;;;;;;5043449;28;20799;-63
2022/11/30 04:41:10;;;;;;;42.97;19.25;;;;;;;;;;5024814;28;20049;-63
2022/11/30 04:43:38;;;;;;;39.35;18.52;;;;;;;;;;5044820;28;20058;-64
2022/11/30 04:46:05;;;;;;;38.67;17.98;;;;;;;;;;5024187;28;20052;-64
2022/11/30 04:48:34;;;;;;;45.83;20.17;;;;;;;;;;5040464;28;20056;-64
2022/11/30 04:51:02;;;;;;;52.28;19.20;;;;;;;;;;5045745;28;20107;-63
2022/11/30 04:53:29;;;;;;;42.67;18.35;;;;;;;;;;5027274;28;20088;-63
2022/11/30 04:55:56;;;;;;;60.55;13.43;;;;;;;;;;5044743;28;20045;-63
2022/11/30 04:58:24;;;;;;;178.75;18.75;;;;;;;;;;5044622;28;20076;-63
2022/11/30 05:00:54;;;;;;;175.38;22.83;;;;;;;;;;5045732;28;21224;-63
2022/11/30 05:03:21;;;;;;;152.43;18.13;;;;;;;;;;5028893;28;20510;-63
2022/11/30 05:05:49;;;;;;;77.90;13.40;;;;;;;;;;5026590;28;20060;-63
2022/11/30 05:08:17;;;;;;;60.28;11.23;;;;;;;;;;5045033;28;20041;-63
2022/11/30 05:10:44;;;;;;;59.63;12.85;;;;;;;;;;5037665;28;20057;-64
2022/11/30 05:13:11;;;;;;;69.50;13.88;;;;;;;;;;5044302;28;20056;-63
2022/11/30 05:15:38;;;;;;;63.63;12.10;;;;;;;;;;5042958;28;20099;-63
2022/11/30 05:18:06;;;;;;;67.05;11.00;;;;;;;;;;5049757;28;20076;-63
2022/11/30 05:20:33;;;;;;;40.38;10.55;;;;;;;;;;5049950;28;20052;-64
2022/11/30 05:23:01;;;;;;;173.13;14.27;;;;;;;;;;5046902;28;20060;-64
2022/11/30 05:25:29;;;;;;;117.15;15.57;;;;;;;;;;5045800;28;20068;-63
2022/11/30 05:27:56;;;;;;;55.33;11.10;;;;;;;;;;5045058;28;20435;-63
2022/11/30 05:30:23;;;;;;;54.20;11.50;;;;;;;;;;5046884;28;20061;-64
2022/11/30 05:32:50;;;;;;;26.30;11.55;;;;;;;;;;5028458;28;20075;-63
2022/11/30 05:35:17;;;;;;;41.17;14.10;;;;;;;;;;5050700;28;20403;-64
2022/11/30 05:37:45;;;;;;;18.65;10.98;;;;;;;;;;5045719;28;20041;-63
2022/11/30 05:40:14;;;;;;;34.88;12.90;;;;;;;;;;5050101;28;20053;-63
2022/11/30 05:42:41;;;;;;;19.70;11.45;;;;;;;;;;5050128;28;20049;-63
2022/11/30 05:45:09;;;;;;;18.70;10.95;;;;;;;;;;5045392;28;20048;-64
2022/11/30 05:47:36;;;;;;;18.73;10.50;;;;;;;;;;5042703;28;20136;-63
2022/11/30 05:50:03;;;;;;;20.05;11.15;;;;;;;;;;5050097;28;20045;-63
2022/11/30 05:52:30;;;;;;;35.20;12.60;;;;;;;;;;5043920;28;20072;-64
2022/11/30 05:54:58;;;;;;;22.88;11.82;;;;;;;;;;5050607;28;20048;-64
2022/11/30 05:57:26;;;;;;;22.42;11.70;;;;;;;;;;5048209;28;20040;-63
2022/11/30 05:59:54;;;;;;;21.77;12.05;;;;;;;;;;5048444;28;20045;-64
2022/11/30 06:02:21;;;;;;;29.80;12.85;;;;;;;;;;5047273;28;20051;-64
2022/11/30 06:04:48;;;;;;;22.48;12.38;;;;;;;;;;5048677;28;20570;-64
2022/11/30 06:07:15;;;;;;;35.20;14.93;;;;;;;;;;5048337;28;20048;-63
2022/11/30 06:09:43;;;;;;;45.03;20.30;;;;;;;;;;5046342;28;20052;-64
2022/11/30 06:12:10;;;;;;;46.33;21.42;;;;;;;;;;5041964;28;20381;-64
2022/11/30 06:14:39;;;;;;;52.10;21.08;;;;;;;;;;5033261;28;20054;-63
2022/11/30 06:17:06;;;;;;;27.33;17.50;;;;;;;;;;5048309;28;20052;-63
2022/11/30 06:19:33;;;;;;;27.58;15.93;;;;;;;;;;5051800;28;20053;-63
2022/11/30 06:22:00;;;;;;;25.73;15.05;;;;;;;;;;5045354;28;20048;-63
2022/11/30 06:24:28;;;;;;;24.98;15.15;;;;;;;;;;5036090;28;20049;-64
2022/11/30 06:26:55;;;;;;;19.65;12.43;;;;;;;;;;5052394;28;20052;-64
2022/11/30 06:29:22;;;;;;;29.13;12.75;;;;;;;;;;5049893;28;20106;-64
2022/11/30 06:31:51;;;;;;;19.13;11.48;;;;;;;;;;5051578;28;20052;-63
2022/11/30 06:34:18;;;;;;;22.08;11.73;;;;;;;;;;5047662;28;20052;-63
2022/11/30 06:36:45;;;;;;;19.98;11.05;;;;;;;;;;5054656;28;20856;-63
2022/11/30 06:39:13;;;;;;;16.27;10.13;;;;;;;;;;5046278;28;20044;-64
2022/11/30 06:41:40;;;;;;;22.58;11.30;;;;;;;;;;5050939;28;20067;-64
2022/11/30 06:44:08;;;;;;;59.83;12.05;;;;;;;;;;5048179;28;20053;-64
2022/11/30 06:46:35;;;;;;;119.57;13.90;;;;;;;;;;5056187;28;20053;-63
2022/11/30 06:49:05;;;;;;;125.10;10.27;;;;;;;;;;5034399;28;20057;-63
2022/11/30 06:51:32;;;;;;;285.65;11.73;;;;;;;;;;5047112;28;20048;-64
2022/11/30 06:53:59;;;;;;;259.27;13.45;;;;;;;;;;5031639;28;20183;-64
2022/11/30 06:56:26;;;;;;;298.10;14.15;;;;;;;;;;5033205;28;20064;-64
2022/11/30 06:58:53;;;;;;;204.90;9.85;;;;;;;;;;5050098;28;20492;-63
2022/11/30 07:01:21;;;;;;;195.50;11.80;;;;;;;;;;5043929;28;20064;-65
2022/11/30 07:03:48;;;;;;;144.07;11.07;;;;;;;;;;5030304;28;20148;-65
2022/11/30 07:06:17;;;;;;;245.82;11.15;;;;;;;;;;5034710;28;20045;-64
2022/11/30 07:08:44;;;;;;;139.48;9.48;;;;;;;;;;5036129;28;20045;-64
2022/11/30 07:11:12;;;;;;;171.23;10.48;;;;;;;;;;5045354;28;20063;-64
2022/11/30 07:13:39;;;;;;;75.97;11.45;;;;;;;;;;5033240;28;20049;-65
2022/11/30 07:16:08;;;;;;;78.25;10.82;;;;;;;;;;5041836;28;20051;-64
2022/11/30 07:18:35;;;;;;;92.43;12.57;;;;;;;;;;5044459;28;20053;-64
2022/11/30 07:21:03;;;;;;;63.45;11.07;;;;;;;;;;5043560;28;20045;-64
2022/11/30 07:26:16;;;;;;;70.47;10.70;;;;;;;;;;5041033;28;20048;-64
2022/11/30 07:28:45;;;;;;;53.85;10.88;;;;;;;;;;5028356;28;20049;-64
2022/11/30 07:31:16;;;;;;;34.88;9.40;;;;;;;;;;5044890;28;20148;-63
2022/11/30 07:33:43;;;;;;;72.43;11.68;;;;;;;;;;5021136;28;20048;-64
2022/11/30 07:36:10;;;;;;;23.80;9.15;;;;;;;;;;5041548;28;20053;-65
2022/11/30 07:38:39;;;;;;;19.40;8.48;;;;;;;;;;5034611;28;20482;-64
2022/11/30 07:41:07;;;;;;;32.00;9.57;;;;;;;;;;5039869;28;20134;-64
2022/11/30 07:43:34;;;;;;;13.18;7.32;;;;;;;;;;5041695;28;20063;-65
2022/11/30 07:46:02;;;;;;;13.50;7.25;;;;;;;;;;5039148;28;20048;-64
2022/11/30 07:48:29;;;;;;;11.73;6.97;;;;;;;;;;5039356;28;20858;-65
2022/11/30 07:51:02;;;;;;;12.57;8.07;;;;;;;;;;5038116;28;20118;-64
2022/11/30 07:53:30;;;;;;;13.25;8.70;;;;;;;;;;5022809;28;20084;-64
2022/11/30 07:56:03;;;;;;;15.13;8.60;;;;;;;;;;5041653;28;20067;-64
2022/11/30 07:58:31;;;;;;;15.15;8.63;;;;;;;;;;5038307;28;20492;-63
2022/11/30 08:01:01;;;;;;;17.52;9.82;;;;;;;;;;5039312;28;20069;-64
2022/11/30 08:03:29;;;;;;;16.35;9.63;;;;;;;;;;5038446;28;20641;-65
2022/11/30 08:06:00;;;;;;;17.27;10.27;;;;;;;;;;5035617;28;20053;-64
2022/11/30 08:08:29;;;;;;;18.30;9.63;;;;;;;;;;5037161;28;20334;-64
2022/11/30 08:10:57;;;;;;;21.38;11.07;;;;;;;;;;5045577;28;20042;-64
2022/11/30 08:13:25;;;;;;;21.55;10.73;;;;;;;;;;5038764;28;20057;-64
2022/11/30 08:15:53;;;;;;;17.17;10.27;;;;;;;;;;5040959;28;20041;-64
2022/11/30 08:18:20;;;;;;;24.25;11.18;;;;;;;;;;5039183;28;20056;-65
2022/11/30 08:20:47;;;;;;;28.85;11.95;;;;;;;;;;5039667;28;20067;-65
2022/11/30 08:23:14;;;;;;;22.00;11.98;;;;;;;;;;5042173;28;20049;-64
2022/11/30 08:25:42;;;;;;;36.20;13.48;;;;;;;;;;5043581;28;20145;-65
2022/11/30 08:28:09;;;;;;;25.02;13.73;;;;;;;;;;5041129;28;20076;-65
2022/11/30 08:30:37;;;;;;;21.20;13.10;;;;;;;;;;5041421;28;20038;-64
2022/11/30 08:33:05;;;;;;;27.40;13.75;;;;;;;;;;5043936;28;20052;-64
2022/11/30 08:35:32;;;;;;;27.20;14.50;;;;;;;;;;5023686;28;20084;-64
2022/11/30 08:37:59;;;;;;;39.05;15.98;;;;;;;;;;5041274;28;20057;-64
2022/11/30 08:40:26;;;;;;;33.90;16.08;;;;;;;;;;5046623;28;20487;-65
2022/11/30 08:42:54;;;;;;;35.55;17.20;;;;;;;;;;5041203;28;20088;-65
2022/11/30 08:45:21;;;;;;;38.67;18.23;;;;;;;;;;5033392;28;20400;-65
2022/11/30 08:47:49;;;;;;;38.20;17.15;;;;;;;;;;5035490;28;20060;-64
2022/11/30 08:50:17;;;;;;;37.88;18.02;;;;;;;;;;5041817;28;20073;-64
2022/11/30 08:52:44;;;;;;;45.33;17.48;;;;;;;;;;5038011;28;20821;-65
2022/11/30 08:55:11;;;;;;;52.88;19.15;;;;;;;;;;5018924;28;20044;-65
2022/11/30 08:57:38;;;;;;;40.30;18.85;;;;;;;;;;5037476;28;20674;-63
2022/11/30 09:00:06;;;;;;;41.67;19.00;;;;;;;;;;5023696;28;20063;-64
2022/11/30 09:02:33;;;;;;;77.28;19.67;;;;;;;;;;5041348;28;20069;-65
2022/11/30 09:05:02;;;;;;;48.15;19.40;;;;;;;;;;5041547;28;20057;-64
2022/11/30 09:07:29;;;;;;;37.60;18.00;;;;;;;;;;5042833;28;20099;-63
2022/11/30 09:09:56;;;;;;;65.72;21.88;;;;;;;;;;5023827;28;20045;-64
2022/11/30 09:12:24;;;;;;;30.95;16.67;;;;;;;;;;5041304;28;20048;-65
2022/11/30 09:14:51;;;;;;;55.78;20.25;;;;;;;;;;5038021;28;20516;-64
2022/11/30 09:17:18;;;;;;;40.17;20.75;;;;;;;;;;5041692;28;20053;-64
2022/11/30 09:19:45;;;;;;;44.97;20.40;;;;;;;;;;5037280;28;20045;-64
2022/11/30 09:22:14;;;;;;;39.67;19.05;;;;;;;;;;5047014;28;20044;-64
2022/11/30 09:24:43;;;;;;;40.50;18.98;;;;;;;;;;5044220;28;20085;-65
2022/11/30 09:27:10;;;;;;;37.92;19.63;;;;;;;;;;5046163;28;20553;-65
2022/11/30 09:29:37;;;;;;;45.83;21.48;;;;;;;;;;5048744;28;20055;-65
2022/11/30 09:32:05;;;;;;;43.40;23.00;;;;;;;;;;5047274;28;20049;-65
2022/11/30 09:34:32;;;;;;;50.97;24.85;;;;;;;;;;5048347;28;20389;-64
2022/11/30 09:37:00;;;;;;;49.10;22.05;;;;;;;;;;5053978;28;20049;-64
2022/11/30 09:39:28;;;;;;;44.90;22.95;;;;;;;;;;5048293;28;20128;-63
2022/11/30 09:42:10;;;;;;;47.03;23.27;;;;;;;;;;5034971;28;20060;-65
2022/11/30 09:44:44;;;;;;;45.83;23.50;;;;;;;;;;5043841;28;20052;-64
2022/11/30 09:47:16;;;;;;;51.72;26.70;;;;;;;;;;5028400;28;20536;-64
2022/11/30 09:49:44;;;;;;;54.05;27.88;;;;;;;;;;5045565;28;20045;-64
2022/11/30 09:52:13;;;;;;;67.95;28.25;;;;;;;;;;5044674;28;20738;-64
2022/11/30 09:54:43;;;;;;;48.15;26.02;;;;;;;;;;5045412;28;20636;-65
2022/11/30 09:57:16;;;;;;;57.13;27.52;;;;;;;;;;5046157;28;20072;-65
2022/11/30 09:59:46;;;;;;;61.90;29.30;;;;;;;;;;5049211;28;20053;-64
2022/11/30 10:02:16;;;;;;;97.07;34.45;;;;;;;;;;5046819;28;20045;-64
2022/11/30 10:04:43;;;;;;;81.57;32.42;;;;;;;;;;5048593;28;20135;-65
2022/11/30 10:07:15;;;;;;;73.53;32.15;;;;;;;;;;5046980;28;20060;-65
2022/11/30 10:09:49;;;;;;;83.03;34.60;;;;;;;;;;5023454;28;20472;-64
2022/11/30 10:12:20;;;;;;;75.95;32.40;;;;;;;;;;5047552;28;20045;-64
2022/11/30 10:14:54;;;;;;;78.65;34.33;;;;;;;;;;5046453;28;20048;-64
2022/11/30 10:17:28;;;;;;;70.97;30.83;;;;;;;;;;5049835;28;20052;-65
2022/11/30 10:20:00;;;;;;;81.57;35.05;;;;;;;;;;5043796;28;20506;-65
2022/11/30 10:22:31;;;;;;;79.80;33.20;;;;;;;;;;5037296;28;20051;-65
2022/11/30 10:25:05;;;;;;;83.05;32.90;;;;;;;;;;5048839;28;20059;-64
2022/11/30 10:27:39;;;;;;;81.45;33.10;;;;;;;;;;5044772;28;20686;-64
2022/11/30 10:30:13;;;;;;;78.05;33.85;;;;;;;;;;5044529;28;20060;-64
2022/11/30 10:32:42;;;;;;;76.10;32.58;;;;;;;;;;5034632;28;20155;-65
2022/11/30 10:35:16;;;;;;;71.00;32.42;;;;;;;;;;5042709;28;20053;-65
2022/11/30 10:37:45;;;;;;;83.75;36.25;;;;;;;;;;5038298;28;20076;-65
2022/11/30 10:40:15;;;;;;;82.95;36.05;;;;;;;;;;5040488;28;20045;-64
2022/11/30 10:42:43;;;;;;;83.53;35.67;;;;;;;;;;5039350;28;20049;-65
2022/11/30 10:45:12;;;;;;;84.10;35.83;;;;;;;;;;5026436;28;20052;-65
2022/11/30 10:47:41;;;;;;;77.82;33.35;;;;;;;;;;5041750;28;20479;-64
2022/11/30 10:50:11;;;;;;;83.03;33.85;;;;;;;;;;5041875;28;20134;-65
2022/11/30 10:52:42;;;;;;;78.75;33.60;;;;;;;;;;5043178;28;20049;-64
2022/11/30 10:55:15;;;;;;;77.35;32.25;;;;;;;;;;5044495;28;20069;-65
2022/11/30 10:57:42;;;;;;;79.43;32.17;;;;;;;;;;5036924;28;20053;-64
2022/11/30 11:00:13;;;;;;;93.03;36.15;;;;;;;;;;5043333;28;20074;-65
2022/11/30 11:02:41;;;;;;;84.95;34.88;;;;;;;;;;5044659;28;20733;-64
2022/11/30 11:05:10;;;;;;;88.28;33.83;;;;;;;;;;5037392;28;20055;-65
2022/11/30 11:07:45;;;;;;;84.47;36.53;;;;;;;;;;5041527;28;20858;-65
2022/11/30 11:10:15;;;;;;;86.72;36.63;;;;;;;;;;5042302;28;20053;-65
2022/11/30 11:12:49;;;;;;;91.93;34.65;;;;;;;;;;5045545;28;20337;-65
2022/11/30 11:15:19;;;;;;;91.80;35.10;;;;;;;;;;5046462;28;21112;-64
2022/11/30 11:17:46;;;;;;;88.25;34.83;;;;;;;;;;5044486;28;20102;-65
2022/11/30 11:20:31;;;;;;;84.55;34.50;;;;;;;;;;5040352;28;20045;-64
2022/11/30 11:22:59;;;;;;;83.05;34.03;;;;;;;;;;5043911;28;20061;-65
2022/11/30 11:25:30;;;;;;;81.03;32.13;;;;;;;;;;5050307;28;20089;-65
2022/11/30 11:28:01;;;;;;;74.05;32.95;;;;;;;;;;5043366;28;20411;-64
2022/11/30 11:30:29;;;;;;;74.47;31.88;;;;;;;;;;5049737;28;20057;-65
2022/11/30 11:33:00;;;;;;;94.75;35.65;;;;;;;;;;5045290;28;20049;-65
2022/11/30 11:35:36;;;;;;;83.80;34.95;;;;;;;;;;5047062;28;20052;-65
2022/11/30 11:38:04;;;;;;;89.25;34.85;;;;;;;;;;5043403;28;20072;-64
2022/11/30 11:40:31;;;;;;;85.28;33.33;;;;;;;;;;5045400;28;20041;-65
2022/11/30 11:43:02;;;;;;;76.38;31.77;;;;;;;;;;5042372;28;20055;-65
2022/11/30 11:45:32;;;;;;;83.47;33.28;;;;;;;;;;5045789;28;20113;-65
2022/11/30 11:48:00;;;;;;;74.70;31.33;;;;;;;;;;5036210;28;20569;-64
2022/11/30 11:50:29;;;;;;;95.97;35.08;;;;;;;;;;5043501;28;20053;-64
2022/11/30 11:53:21;;;;;;;98.78;36.28;;;;;;;;;;5042391;28;20111;-65
2022/11/30 11:55:51;;;;;;;91.53;34.60;;;;;;;;;;5042408;28;20515;-64
2022/11/30 11:58:26;;;;;;;83.90;32.97;;;;;;;;;;5042308;28;20049;-65
2022/11/30 12:00:55;;;;;;;89.88;35.17;;;;;;;;;;5042120;28;20045;-65
2022/11/30 12:03:27;;;;;;;80.95;32.65;;;;;;;;;;5042057;28;20053;-65
2022/11/30 12:05:58;;;;;;;95.53;35.37;;;;;;;;;;5037636;28;20057;-65
2022/11/30 12:08:29;;;;;;;81.90;33.95;;;;;;;;;;5043438;28;20057;-65
2022/11/30 12:10:59;;;;;;;100.60;36.13;;;;;;;;;;5041637;28;20037;-65
2022/11/30 12:13:32;;;;;;;97.93;35.75;;;;;;;;;;5036038;28;20053;-64
2022/11/30 12:16:05;;;;;;;76.60;33.20;;;;;;;;;;5043407;28;20136;-65
2022/11/30 12:18:37;;;;;;;88.13;34.47;;;;;;;;;;5041535;28;20060;-65
2022/11/30 12:21:08;;;;;;;90.55;34.67;;;;;;;;;;5044239;28;20406;-65
2022/11/30 12:23:48;;;;;;;94.00;33.42;;;;;;;;;;5048700;28;20079;-65
2022/11/30 12:26:20;;;;;;;93.63;36.38;;;;;;;;;;5046881;28;20080;-65
2022/11/30 12:28:54;;;;;;;81.53;34.95;;;;;;;;;;5034337;28;20068;-65
2022/11/30 12:31:22;;;;;;;85.22;34.85;;;;;;;;;;5034394;28;20060;-65
2022/11/30 12:34:07;;;;;;;98.82;36.15;;;;;;;;;;5037781;28;20048;-64
2022/11/30 12:36:42;;;;;;;88.65;35.08;;;;;;;;;;5036739;28;20060;-64
2022/11/30 12:39:09;;;;;;;86.05;34.20;;;;;;;;;;5038450;28;20048;-65
2022/11/30 12:41:40;;;;;;;81.68;33.67;;;;;;;;;;5038364;28;20056;-65
2022/11/30 12:44:15;;;;;;;82.68;33.53;;;;;;;;;;5017261;28;20052;-64
2022/11/30 12:46:47;;;;;;;103.57;36.50;;;;;;;;;;5038436;28;20049;-65
2022/11/30 12:49:22;;;;;;;84.03;33.15;;;;;;;;;;5019833;28;20056;-64
2022/11/30 12:51:54;;;;;;;95.75;36.67;;;;;;;;;;5038202;28;20053;-65
2022/11/30 12:54:23;;;;;;;82.95;34.30;;;;;;;;;;5037922;28;20061;-66
2022/11/30 12:56:55;;;;;;;92.03;34.88;;;;;;;;;;5036021;28;20056;-66
2022/11/30 12:59:28;;;;;;;100.47;36.50;;;;;;;;;;5034747;28;20057;-65
2022/11/30 13:02:14;;;;;;;92.63;35.55;;;;;;;;;;5037798;28;20087;-65
2022/11/30 13:04:42;;;;;;;86.35;35.08;;;;;;;;;;5039440;28;20135;-65
2022/11/30 13:07:12;;;;;;;111.85;37.80;;;;;;;;;;5043826;28;20698;-65
2022/11/30 13:09:42;;;;;;;94.15;36.03;;;;;;;;;;5040020;28;20045;-65
2022/11/30 13:12:12;;;;;;;107.32;38.13;;;;;;;;;;5039595;28;20072;-65
2022/11/30 13:14:41;;;;;;;105.63;36.70;;;;;;;;;;5043666;28;20052;-65
2022/11/30 13:17:14;;;;;;;103.13;37.45;;;;;;;;;;5040310;28;20045;-64
2022/11/30 13:19:48;;;;;;;125.55;40.13;;;;;;;;;;5039528;28;20041;-65
2022/11/30 13:22:19;;;;;;;94.13;37.70;;;;;;;;;;5042575;28;20175;-65
2022/11/30 13:24:50;;;;;;;96.80;38.60;;;;;;;;;;5037583;28;20095;-65
2022/11/30 13:27:21;;;;;;;123.93;40.45;;;;;;;;;;5038663;28;20063;-64
2022/11/30 13:30:01;;;;;;;115.45;39.90;;;;;;;;;;5038403;28;20048;-65
2022/11/30 13:32:30;;;;;;;106.13;38.35;;;;;;;;;;5040274;28;20045;-65
2022/11/30 13:35:12;;;;;;;117.40;41.00;;;;;;;;;;5041826;28;20106;-64
2022/11/30 13:37:40;;;;;;;119.35;39.67;;;;;;;;;;5035932;28;20057;-65
2022/11/30 13:40:20;;;;;;;133.25;42.80;;;;;;;;;;5041706;28;20080;-65
2022/11/30 13:42:47;;;;;;;108.13;40.88;;;;;;;;;;5040356;28;20048;-64
2022/11/30 13:45:31;;;;;;;110.25;40.92;;;;;;;;;;5042940;28;20227;-65
2022/11/30 13:47:59;;;;;;;101.13;40.50;;;;;;;;;;5037471;28;20131;-66
2022/11/30 13:50:33;;;;;;;116.40;42.10;;;;;;;;;;5037708;28;20084;-65
2022/11/30 13:53:09;;;;;;;110.88;40.55;;;;;;;;;;5042659;28;20052;-64
2022/11/30 13:55:50;;;;;;;103.43;38.88;;;;;;;;;;5038330;28;20060;-64
2022/11/30 13:58:19;;;;;;;136.48;43.85;;;;;;;;;;5041938;28;20121;-66
2022/11/30 14:01:00;;;;;;;100.35;39.78;;;;;;;;;;5040854;28;20506;-64
2022/11/30 14:03:28;;;;;;;97.55;40.17;;;;;;;;;;5041659;28;20045;-65
2022/11/30 14:05:56;;;;;;;131.73;44.33;;;;;;;;;;5041786;28;20049;-66
2022/11/30 14:08:38;;;;;;;126.20;44.63;;;;;;;;;;5039934;28;20045;-65
2022/11/30 14:11:39;;;;;;;131.77;45.85;;;;;;;;;;5037653;28;20414;-65
2022/11/30 14:14:25;;;;;;;150.10;47.55;;;;;;;;;;4946449;28;20047;-65
2022/11/30 14:16:53;;;;;;;126.50;44.17;;;;;;;;;;4949865;28;20047;-65
2022/11/30 14:19:21;;;;;;;107.70;42.47;;;;;;;;;;5003392;28;20060;-65
2022/11/30 14:21:48;;;;;;;109.30;42.75;;;;;;;;;;5044538;28;20055;-63
2022/11/30 14:24:18;;;;;;;112.30;44.00;;;;;;;;;;5042428;28;20068;-65
2022/11/30 14:26:47;;;;;;;103.38;42.28;;;;;;;;;;5042524;28;20695;-65
2022/11/30 14:29:17;;;;;;;96.88;41.30;;;;;;;;;;5046149;28;20041;-65
2022/11/30 14:31:50;;;;;;;125.35;45.00;;;;;;;;;;5029942;28;20048;-65